Time;durP1;ratioP1;P1;durP2;ratioP2;P2;SDS_P1;SDS_P2;PMS_P1;PMS_P2;Temp;Humidity;BMP_temperature;BMP_pressure;BME280_temperature;BME280_humidity;BME280_pressure;Samples;Min_cycle;Max_cycle;Signal;HPM_P1;HPM_P2
2022/02/01 00:01:19;;;;;;;6.15;2.00;;;2.00;88.50;;;;;;5033939;28;20064;-75
2022/02/01 00:03:48;;;;;;;7.50;1.63;;;2.00;88.70;;;;;;5016200;28;20394;-77
2022/02/01 00:09:07;;;;;;;4.07;1.58;;;2.00;88.50;;;;;;5033817;28;20029;-77
2022/02/01 00:14:54;;;;;;;6.30;1.65;;;2.00;88.50;;;;;;4953465;29;20030;-74
2022/02/01 00:17:41;;;;;;;7.53;1.60;;;1.90;88.40;;;;;;5027534;28;20405;-78
2022/02/01 00:33:49;;;;;;;9.50;1.35;;;2.00;88.70;;;;;;5033764;28;20083;-77
2022/02/01 00:41:13;;;;;;;5.00;1.38;;;1.90;88.50;;;;;;5033320;28;20041;-75
2022/02/01 00:43:39;;;;;;;5.05;1.50;;;1.90;88.40;;;;;;5015574;28;20462;-77
2022/02/01 00:46:05;;;;;;;4.65;1.00;;;1.80;88.30;;;;;;5015731;28;20053;-74
2022/02/01 00:48:31;;;;;;;9.30;1.40;;;1.90;88.60;;;;;;5015442;28;20087;-74
2022/02/01 00:50:58;;;;;;;4.50;1.30;;;1.90;88.30;;;;;;5015555;28;20031;-74
2022/02/01 00:53:28;;;;;;;4.43;1.40;;;1.90;88.30;;;;;;5015567;28;20032;-76
2022/02/01 00:55:55;;;;;;;3.90;1.10;;;1.90;88.10;;;;;;5015514;28;20045;-76
2022/02/01 00:58:21;;;;;;;13.55;2.33;;;1.90;88.20;;;;;;5015539;28;20029;-76
2022/02/01 01:00:47;;;;;;;4.05;1.38;;;1.80;88.10;;;;;;5015323;28;20025;-76
2022/02/01 01:03:13;;;;;;;6.43;1.45;;;1.80;88.20;;;;;;5015430;28;20112;-74
2022/02/01 01:05:38;;;;;;;3.42;1.02;;;1.80;88.20;;;;;;5015475;28;20432;-75
2022/02/01 01:08:04;;;;;;;9.32;1.88;;;1.80;88.30;;;;;;5015290;28;20454;-74
2022/02/01 01:10:30;;;;;;;4.65;0.90;;;1.80;88.40;;;;;;5015332;28;20088;-75
2022/02/01 01:15:45;;;;;;;2.80;1.17;;;1.80;88.10;;;;;;5032834;28;20107;-75
2022/02/01 01:45:46;;;;;;;4.65;1.60;;;1.90;87.20;;;;;;5041118;28;20072;-74
2022/02/01 01:53:39;;;;;;;6.47;1.30;;;1.90;86.60;;;;;;5037605;28;20036;-76
2022/02/01 01:56:05;;;;;;;6.03;1.63;;;1.90;86.20;;;;;;5018733;28;20017;-76
2022/02/01 01:58:31;;;;;;;5.63;1.60;;;2.00;86.40;;;;;;5018528;28;20055;-76
2022/02/01 02:03:25;;;;;;;4.57;1.20;;;2.00;86.80;;;;;;5036188;28;20022;-76
2022/02/01 02:05:51;;;;;;;6.10;1.50;;;1.90;87.20;;;;;;5018486;28;20462;-76
2022/02/01 02:08:16;;;;;;;6.50;1.23;;;2.00;87.50;;;;;;5002238;28;20034;-77
2022/02/01 02:18:20;;;;;;;13.68;1.40;;;2.00;87.80;;;;;;5036126;28;20477;-74
2022/02/01 02:20:54;;;;;;;8.93;1.95;;;2.00;87.70;;;;;;5035864;28;20057;-74
2022/02/01 02:23:21;;;;;;;6.78;1.27;;;2.00;87.80;;;;;;5018252;28;20063;-75
2022/02/01 02:25:47;;;;;;;4.15;1.92;;;2.00;88.00;;;;;;5017823;28;20057;-74
2022/02/01 02:28:15;;;;;;;7.88;1.60;;;2.00;88.00;;;;;;5018111;28;20036;-77
2022/02/01 02:30:46;;;;;;;10.10;1.63;;;1.90;87.80;;;;;;5017903;28;20133;-76
2022/02/01 02:33:14;;;;;;;5.60;1.45;;;2.00;87.80;;;;;;5018019;28;20228;-76
2022/02/01 02:36:06;;;;;;;9.63;2.13;;;2.00;88.10;;;;;;5017843;28;20057;-76
2022/02/01 02:38:41;;;;;;;8.57;1.70;;;1.90;88.20;;;;;;5017915;28;20029;-76
2022/02/01 02:41:34;;;;;;;8.93;1.70;;;1.90;88.30;;;;;;5017981;28;20522;-76
2022/02/01 02:46:49;;;;;;;7.45;2.00;;;1.90;88.90;;;;;;5035602;28;20083;-77
2022/02/01 02:49:19;;;;;;;11.30;2.05;;;1.90;89.70;;;;;;5001238;28;20117;-76
2022/02/01 02:51:45;;;;;;;9.27;2.50;;;1.90;89.60;;;;;;5017460;28;20022;-77
2022/02/01 02:54:20;;;;;;;7.07;1.80;;;1.90;89.70;;;;;;5017255;28;20075;-77
2022/02/01 02:56:51;;;;;;;10.63;1.73;;;1.80;89.30;;;;;;5001052;28;20116;-77
2022/02/01 02:59:18;;;;;;;12.00;2.05;;;1.80;89.50;;;;;;5017065;28;20036;-77
2022/02/01 03:01:47;;;;;;;6.50;1.70;;;1.80;89.70;;;;;;5017497;28;20037;-75
2022/02/01 03:04:18;;;;;;;13.43;2.33;;;1.80;89.70;;;;;;5001226;28;20030;-74
2022/02/01 03:06:45;;;;;;;13.68;2.92;;;1.80;89.50;;;;;;5017243;28;20026;-74
2022/02/01 03:09:11;;;;;;;17.23;2.45;;;1.80;89.40;;;;;;5017179;28;20033;-75
2022/02/01 03:11:38;;;;;;;14.43;2.40;;;1.80;89.60;;;;;;5016937;28;20028;-74
2022/02/01 03:14:15;;;;;;;14.30;2.95;;;1.80;89.60;;;;;;5017178;28;20033;-77
2022/02/01 03:21:58;;;;;;;13.10;2.35;;;1.70;90.10;;;;;;5035290;28;20029;-75
2022/02/01 03:24:24;;;;;;;9.70;2.20;;;1.70;90.50;;;;;;5016910;28;20486;-76
2022/02/01 03:26:49;;;;;;;14.88;2.72;;;1.60;90.50;;;;;;5016922;28;20037;-75
2022/02/01 03:29:16;;;;;;;12.82;2.75;;;1.70;90.90;;;;;;5016895;28;20086;-75
2022/02/01 03:31:42;;;;;;;11.32;2.53;;;1.70;90.80;;;;;;5016723;28;20044;-76
2022/02/01 03:34:08;;;;;;;13.18;2.58;;;1.70;90.30;;;;;;5016788;28;20474;-76
2022/02/01 03:36:33;;;;;;;15.55;3.10;;;1.70;90.50;;;;;;5016602;28;20471;-76
2022/02/01 03:39:00;;;;;;;7.65;2.08;;;1.70;90.70;;;;;;5016933;28;20141;-75
2022/02/01 03:41:26;;;;;;;14.48;3.00;;;1.70;90.50;;;;;;5016790;28;20037;-75
2022/02/01 03:43:51;;;;;;;15.15;2.60;;;1.70;90.00;;;;;;5016614;28;20030;-76
2022/02/01 03:46:17;;;;;;;17.55;2.85;;;1.60;90.20;;;;;;5016823;28;20028;-75
2022/02/01 03:48:43;;;;;;;19.90;3.63;;;1.70;90.10;;;;;;5016445;28;20116;-75
2022/02/01 03:51:09;;;;;;;14.77;2.65;;;1.70;89.80;;;;;;5018926;28;20021;-77
2022/02/01 03:53:35;;;;;;;14.43;2.83;;;1.60;89.50;;;;;;5016619;28;20423;-79
2022/02/01 03:56:02;;;;;;;13.85;3.03;;;1.60;89.50;;;;;;5022276;28;20024;-76
2022/02/01 03:58:28;;;;;;;23.92;4.72;;;1.70;89.40;;;;;;5027871;28;20025;-76
2022/02/01 04:00:53;;;;;;;16.58;3.10;;;1.70;88.80;;;;;;5020603;28;20036;-76
2022/02/01 04:03:19;;;;;;;15.18;3.10;;;1.70;89.00;;;;;;5016401;28;20124;-75
2022/02/01 04:05:44;;;;;;;18.60;3.55;;;1.70;88.20;;;;;;5016512;28;20036;-77
2022/02/01 04:08:12;;;;;;;16.90;3.13;;;1.70;88.20;;;;;;5016275;28;20030;-76
2022/02/01 04:10:38;;;;;;;14.73;3.08;;;1.70;87.70;;;;;;5015806;28;20033;-79
2022/02/01 04:13:04;;;;;;;15.70;3.00;;;1.70;87.60;;;;;;5016037;28;20084;-77
2022/02/01 04:15:30;;;;;;;11.27;2.67;;;1.70;87.50;;;;;;5015994;28;20621;-75
2022/02/01 04:17:56;;;;;;;24.08;3.58;;;1.80;87.00;;;;;;5015912;28;20040;-76
2022/02/01 04:20:22;;;;;;;23.58;3.47;;;1.80;87.10;;;;;;5015984;28;20120;-76
2022/02/01 04:22:48;;;;;;;20.30;3.45;;;1.80;87.40;;;;;;5015940;28;20068;-80
2022/02/01 04:25:14;;;;;;;14.27;3.28;;;1.80;87.50;;;;;;5015871;28;20485;-77
2022/02/01 04:27:42;;;;;;;25.25;3.97;;;1.70;87.60;;;;;;5015750;28;20132;-76
2022/02/01 04:30:13;;;;;;;15.65;3.30;;;1.80;87.60;;;;;;5015729;28;20037;-76
2022/02/01 04:32:43;;;;;;;18.42;3.65;;;1.70;86.90;;;;;;5015898;28;20022;-76
2022/02/01 04:35:13;;;;;;;22.35;4.72;;;1.70;86.40;;;;;;5015720;28;20082;-76
2022/02/01 04:37:39;;;;;;;18.55;3.90;;;1.70;86.20;;;;;;5033295;28;20029;-76
2022/02/01 04:40:07;;;;;;;25.35;3.88;;;1.70;85.80;;;;;;5015614;28;20026;-76
2022/02/01 04:42:36;;;;;;;23.50;4.03;;;1.70;85.40;;;;;;5015464;28;20029;-76
2022/02/01 04:45:04;;;;;;;17.85;3.33;;;1.70;85.60;;;;;;5015586;28;20056;-76
2022/02/01 04:47:32;;;;;;;22.95;3.97;;;1.70;85.30;;;;;;5015447;28;20117;-79
2022/02/01 04:49:59;;;;;;;18.95;3.53;;;1.70;85.40;;;;;;5015337;28;20029;-77
2022/02/01 04:52:26;;;;;;;21.73;3.97;;;1.70;84.70;;;;;;5015438;28;20052;-75
2022/02/01 04:54:52;;;;;;;24.98;3.53;;;1.60;85.00;;;;;;5015293;28;20473;-77
2022/02/01 04:57:17;;;;;;;23.85;4.75;;;1.60;85.20;;;;;;5015362;28;20064;-76
2022/02/01 04:59:44;;;;;;;25.67;5.47;;;1.60;84.90;;;;;;5015389;28;20025;-76
2022/02/01 05:02:10;;;;;;;17.55;2.90;;;1.60;85.00;;;;;;4998972;28;20034;-76
2022/02/01 05:04:35;;;;;;;20.73;2.63;;;1.70;84.10;;;;;;4998889;28;20049;-76
2022/02/01 05:07:01;;;;;;;25.60;3.05;;;1.70;84.00;;;;;;5015353;28;20071;-76
2022/02/01 05:09:27;;;;;;;18.90;2.92;;;1.70;83.80;;;;;;5015035;28;20392;-75
2022/02/01 05:11:55;;;;;;;14.57;3.78;;;1.70;83.80;;;;;;4999058;28;20079;-74
2022/02/01 05:14:26;;;;;;;17.70;3.67;;;1.60;83.70;;;;;;5015197;28;20026;-77
2022/02/01 05:19:57;;;;;;;19.60;3.67;;;1.70;83.10;;;;;;5013124;28;20085;-75
2022/02/01 05:22:14;;;;;;;10.20;2.40;;;1.70;82.70;;;;;;5009056;28;20088;-75
2022/02/01 05:24:40;;;;;;;23.30;4.47;;;1.60;82.30;;;;;;4998852;28;20080;-78
2022/02/01 05:27:09;;;;;;;16.05;3.22;;;1.60;82.30;;;;;;4999546;28;20026;-77
2022/02/01 05:29:36;;;;;;;16.48;3.35;;;1.60;82.70;;;;;;4999340;28;20065;-74
2022/02/01 05:32:10;;;;;;;13.55;3.38;;;1.60;82.90;;;;;;4999351;28;20022;-75
2022/02/01 05:34:36;;;;;;;25.63;4.82;;;1.70;83.00;;;;;;4999346;28;20390;-75
2022/02/01 05:37:01;;;;;;;19.67;3.33;;;1.50;82.90;;;;;;4999412;28;20047;-77
2022/02/01 05:39:28;;;;;;;20.42;2.88;;;1.50;83.10;;;;;;4999264;28;20031;-75
2022/02/01 05:41:56;;;;;;;17.67;3.60;;;1.40;84.10;;;;;;4999005;28;20032;-76
2022/02/01 05:44:21;;;;;;;20.88;2.85;;;1.40;83.90;;;;;;4999217;28;20030;-77
2022/02/01 05:46:47;;;;;;;19.33;4.25;;;1.40;83.80;;;;;;4998970;28;20120;-76
2022/02/01 05:49:13;;;;;;;19.40;3.47;;;1.40;84.00;;;;;;4998937;28;20039;-75
2022/02/01 05:51:38;;;;;;;23.50;3.28;;;1.40;83.40;;;;;;4999002;28;20033;-75
2022/02/01 05:54:04;;;;;;;18.40;4.53;;;1.40;83.10;;;;;;4999232;28;20026;-75
2022/02/01 05:56:31;;;;;;;26.30;4.60;;;1.40;83.30;;;;;;4998866;28;20026;-75
2022/02/01 05:58:57;;;;;;;20.88;3.33;;;1.50;82.80;;;;;;4999096;28;20057;-75
2022/02/01 06:01:22;;;;;;;20.75;4.15;;;1.50;82.40;;;;;;4998805;28;20053;-75
2022/02/01 06:03:48;;;;;;;24.08;3.45;;;1.40;83.00;;;;;;4998703;28;20037;-75
2022/02/01 06:06:14;;;;;;;17.90;3.97;;;1.50;82.70;;;;;;4998912;28;20048;-75
2022/02/01 06:08:40;;;;;;;17.83;3.38;;;1.50;82.70;;;;;;4998750;28;20108;-75
2022/02/01 06:11:06;;;;;;;24.73;4.15;;;1.50;82.70;;;;;;4998745;28;20087;-77
2022/02/01 06:13:36;;;;;;;16.20;3.90;;;1.50;82.40;;;;;;4998699;28;20559;-75
2022/02/01 06:16:06;;;;;;;18.45;4.82;;;1.50;83.10;;;;;;5011062;28;20037;-76
2022/02/01 06:18:31;;;;;;;27.42;5.38;;;1.40;83.40;;;;;;5018711;28;20026;-74
2022/02/01 06:20:59;;;;;;;23.70;3.38;;;1.40;83.30;;;;;;5019027;28;20394;-75
2022/02/01 06:23:25;;;;;;;21.80;3.78;;;1.50;83.10;;;;;;5018038;28;20025;-76
2022/02/01 06:25:51;;;;;;;15.70;3.50;;;1.40;83.00;;;;;;5017786;28;20075;-76
2022/02/01 06:28:21;;;;;;;20.00;4.20;;;1.40;83.20;;;;;;5017515;28;20112;-75
2022/02/01 06:30:47;;;;;;;21.35;4.45;;;1.50;83.50;;;;;;5017402;28;20512;-77
2022/02/01 06:33:13;;;;;;;20.73;5.70;;;1.50;83.60;;;;;;5017652;28;20044;-77
2022/02/01 06:35:39;;;;;;;25.60;5.47;;;1.50;84.00;;;;;;5017322;28;20062;-78
2022/02/01 06:38:05;;;;;;;17.67;5.28;;;1.50;84.50;;;;;;5017456;28;20381;-78
2022/02/01 06:40:31;;;;;;;25.05;5.75;;;1.50;84.70;;;;;;5017198;28;20025;-79
2022/02/01 06:42:56;;;;;;;14.93;3.80;;;1.40;85.00;;;;;;5017574;28;20390;-76
2022/02/01 06:45:26;;;;;;;30.88;7.50;;;1.40;85.50;;;;;;5017552;28;20021;-78
2022/02/01 06:47:51;;;;;;;17.98;4.07;;;1.40;85.50;;;;;;5017415;28;20466;-77
2022/02/01 06:50:20;;;;;;;22.38;6.20;;;1.40;84.90;;;;;;5017520;28;20037;-76
2022/02/01 06:53:08;;;;;;;29.23;6.85;;;1.30;85.30;;;;;;5017383;28;20030;-80
2022/02/01 06:58:00;;;;;;;18.50;3.58;;;1.30;86.70;;;;;;5035194;28;20029;-77
2022/02/01 07:00:26;;;;;;;16.60;3.83;;;1.30;86.90;;;;;;5017136;28;20398;-78
2022/02/01 07:02:52;;;;;;;17.95;5.05;;;1.30;87.30;;;;;;5016889;28;20029;-79
2022/02/01 07:05:18;;;;;;;22.25;4.15;;;1.20;87.90;;;;;;5017413;28;20029;-79
2022/02/01 07:07:43;;;;;;;16.95;4.20;;;1.30;88.00;;;;;;5016894;28;20018;-80
2022/02/01 07:10:09;;;;;;;25.42;3.50;;;1.30;87.90;;;;;;5016923;28;20043;-80
2022/02/01 07:12:35;;;;;;;24.02;3.60;;;1.30;87.70;;;;;;5000642;28;20386;-80
2022/02/01 07:15:00;;;;;;;19.73;3.70;;;1.30;87.80;;;;;;5016648;28;20039;-79
2022/02/01 07:17:26;;;;;;;20.85;3.88;;;1.30;88.00;;;;;;5000443;28;20124;-78
2022/02/01 07:19:51;;;;;;;23.48;4.85;;;1.20;87.90;;;;;;5017069;28;20034;-79
2022/02/01 07:22:17;;;;;;;17.25;3.30;;;1.20;88.40;;;;;;5016942;28;20116;-78
2022/02/01 07:24:59;;;;;;;22.02;5.03;;;1.20;88.10;;;;;;5016696;28;20510;-79
2022/02/01 07:30:23;;;;;;;14.05;3.83;;;1.10;88.00;;;;;;5017101;28;20160;-78
2022/02/01 07:32:50;;;;;;;19.10;4.15;;;1.20;88.00;;;;;;5016582;28;20036;-79
2022/02/01 07:35:15;;;;;;;25.02;3.50;;;1.30;87.80;;;;;;5016667;28;20017;-77
2022/02/01 07:37:42;;;;;;;22.15;4.15;;;1.30;87.20;;;;;;5016634;28;20025;-78
2022/02/01 07:40:09;;;;;;;27.05;4.55;;;1.30;86.60;;;;;;5016733;28;20052;-78
2022/02/01 07:42:35;;;;;;;24.20;3.47;;;1.30;86.40;;;;;;5016361;28;20022;-78
2022/02/01 07:45:03;;;;;;;23.20;3.13;;;1.40;86.10;;;;;;5000052;28;20026;-75
2022/02/01 07:47:29;;;;;;;21.27;3.20;;;1.40;85.30;;;;;;5015786;28;20484;-75
2022/02/01 07:49:54;;;;;;;14.35;3.80;;;1.50;85.10;;;;;;5016327;28;20482;-74
2022/02/01 07:52:20;;;;;;;11.65;2.80;;;1.50;84.80;;;;;;5016434;28;20338;-75
2022/02/01 07:54:46;;;;;;;14.18;3.40;;;1.40;84.60;;;;;;5016483;28;20454;-76
2022/02/01 07:57:13;;;;;;;22.65;3.88;;;1.40;85.10;;;;;;5016191;28;20032;-75
2022/02/01 07:59:39;;;;;;;22.58;5.60;;;1.40;85.20;;;;;;5015954;28;20022;-77
2022/02/01 08:02:17;;;;;;;19.10;3.67;;;1.40;85.80;;;;;;5016071;28;20029;-75
2022/02/01 08:04:44;;;;;;;16.50;2.95;;;1.40;84.90;;;;;;5016165;28;20048;-79
2022/02/01 08:07:10;;;;;;;15.32;4.13;;;1.30;84.60;;;;;;5015976;28;20099;-77
2022/02/01 08:09:39;;;;;;;17.20;3.58;;;1.30;84.90;;;;;;5015927;28;20367;-78
2022/02/01 08:12:14;;;;;;;17.67;3.28;;;1.30;84.70;;;;;;5016114;28;20029;-75
2022/02/01 08:17:14;;;;;;;15.40;3.47;;;1.30;85.10;;;;;;5033673;28;20107;-74
2022/02/01 08:25:14;;;;;;;11.23;3.03;;;1.50;83.60;;;;;;5033975;28;20075;-76
2022/02/01 08:27:41;;;;;;;18.30;3.97;;;1.50;83.30;;;;;;5019872;28;20032;-75
2022/02/01 08:30:08;;;;;;;16.42;4.60;;;1.60;83.00;;;;;;5020924;28;20053;-77
2022/02/01 08:32:35;;;;;;;15.15;3.92;;;1.70;82.50;;;;;;5015953;28;20022;-75
2022/02/01 08:35:00;;;;;;;13.25;3.20;;;1.80;82.60;;;;;;5016582;28;20036;-76
2022/02/01 08:37:26;;;;;;;19.30;4.25;;;1.80;80.80;;;;;;5016068;28;20381;-74
2022/02/01 08:39:52;;;;;;;13.70;3.17;;;1.90;81.10;;;;;;5018694;28;20029;-75
2022/02/01 08:42:18;;;;;;;19.17;3.78;;;1.80;81.40;;;;;;5034293;28;20486;-81
2022/02/01 08:44:44;;;;;;;15.35;3.45;;;1.90;81.40;;;;;;5033263;28;20532;-74
2022/02/01 08:47:12;;;;;;;20.40;5.05;;;1.90;80.60;;;;;;5028170;28;20029;-75
2022/02/01 08:49:38;;;;;;;18.92;4.85;;;2.10;80.10;;;;;;5032719;28;20069;-74
2022/02/01 08:52:08;;;;;;;12.95;3.78;;;2.00;80.20;;;;;;5033202;28;20029;-73
2022/02/01 08:54:36;;;;;;;27.52;9.88;;;2.10;80.00;;;;;;5015655;28;20032;-74
2022/02/01 08:57:21;;;;;;;18.33;3.22;;;2.30;79.40;;;;;;5015606;28;20025;-73
2022/02/01 08:59:48;;;;;;;12.27;2.78;;;2.40;78.40;;;;;;5016406;28;20390;-75
2022/02/01 09:02:21;;;;;;;10.18;2.38;;;2.50;76.80;;;;;;5035172;28;20053;-79
2022/02/01 09:04:47;;;;;;;16.25;3.22;;;2.40;77.50;;;;;;5033358;28;20355;-76
2022/02/01 09:07:13;;;;;;;16.95;2.65;;;2.30;77.60;;;;;;5015845;28;20032;-77
2022/02/01 09:09:39;;;;;;;5.63;1.95;;;2.60;83.70;;;;;;5015463;28;20112;-85
2022/02/01 09:12:05;;;;;;;8.07;2.13;;;3.10;82.70;;;;;;5015885;28;20021;-76
2022/02/01 09:14:32;;;;;;;14.65;3.47;;;3.50;76.30;;;;;;5015325;28;20032;-75
2022/02/01 09:17:00;;;;;;;8.82;2.15;;;3.60;75.20;;;;;;5015128;28;20140;-73
2022/02/01 09:19:27;;;;;;;6.90;1.80;;;3.90;73.80;;;;;;5015170;28;20025;-75
2022/02/01 09:21:53;;;;;;;14.65;3.25;;;4.10;74.10;;;;;;5015258;28;20068;-77
2022/02/01 09:24:19;;;;;;;9.20;2.20;;;4.10;74.90;;;;;;5015173;28;20075;-75
2022/02/01 09:26:45;;;;;;;11.90;2.10;;;4.40;73.80;;;;;;5015078;28;20455;-75
2022/02/01 09:29:12;;;;;;;9.45;2.88;;;4.60;71.00;;;;;;5014997;28;20328;-73
2022/02/01 09:31:38;;;;;;;6.60;1.88;;;4.90;70.50;;;;;;5015115;28;20025;-74
2022/02/01 09:34:05;;;;;;;11.00;2.60;;;4.40;67.90;;;;;;5015064;28;20498;-75
2022/02/01 09:36:31;;;;;;;10.90;1.95;;;3.60;68.90;;;;;;5014992;28;20026;-74
2022/02/01 09:38:56;;;;;;;9.32;1.80;;;3.10;71.00;;;;;;5015032;28;20143;-75
2022/02/01 09:41:28;;;;;;;13.00;2.10;;;2.90;71.90;;;;;;5014973;28;20053;-74
2022/02/01 09:43:54;;;;;;;10.20;2.35;;;2.80;74.10;;;;;;5014876;28;20029;-78
2022/02/01 09:46:21;;;;;;;5.63;1.80;;;2.80;73.70;;;;;;5014865;28;20052;-76
2022/02/01 09:48:46;;;;;;;8.85;2.00;;;2.80;72.50;;;;;;5014702;28;20132;-77
2022/02/01 09:51:12;;;;;;;8.77;2.17;;;2.70;73.60;;;;;;5014674;28;20064;-75
2022/02/01 09:53:38;;;;;;;7.07;2.70;;;2.70;73.90;;;;;;5014474;28;20049;-77
2022/02/01 09:56:05;;;;;;;10.98;2.58;;;2.70;73.90;;;;;;5014628;28;20469;-75
2022/02/01 09:58:36;;;;;;;12.32;2.92;;;2.70;73.90;;;;;;4998267;28;20117;-75
2022/02/01 10:01:19;;;;;;;16.85;2.40;;;2.60;72.90;;;;;;5014217;28;20036;-75
2022/02/01 10:03:58;;;;;;;8.02;1.95;;;2.60;74.00;;;;;;4998350;28;20037;-80
2022/02/01 10:06:32;;;;;;;8.18;2.30;;;2.60;74.50;;;;;;5014820;28;20026;-79
2022/02/01 10:09:10;;;;;;;9.50;2.00;;;2.70;74.10;;;;;;5015083;28;20041;-77
2022/02/01 10:11:41;;;;;;;12.57;1.52;;;2.70;74.40;;;;;;5018019;28;20777;-82
2022/02/01 10:14:12;;;;;;;9.40;1.60;;;2.80;73.50;;;;;;5002285;28;20025;-77
2022/02/01 10:16:43;;;;;;;6.10;1.42;;;2.80;72.70;;;;;;5002970;28;20176;-78
2022/02/01 10:19:11;;;;;;;7.68;2.17;;;3.00;72.40;;;;;;4998584;28;20116;-80
2022/02/01 10:21:49;;;;;;;6.03;2.20;;;2.90;72.20;;;;;;4998589;28;20482;-79
2022/02/01 10:24:26;;;;;;;8.88;1.33;;;2.90;72.70;;;;;;4982491;28;20037;-80
2022/02/01 10:26:51;;;;;;;9.57;2.03;;;2.80;72.70;;;;;;4998302;28;20123;-79
2022/02/01 10:29:22;;;;;;;6.47;2.35;;;2.90;73.00;;;;;;4998193;28;20064;-80
2022/02/01 10:31:57;;;;;;;11.80;2.00;;;2.80;73.20;;;;;;4998387;28;20026;-75
2022/02/01 10:36:56;;;;;;;5.75;1.63;;;2.70;73.80;;;;;;5015833;28;20041;-75
2022/02/01 10:39:26;;;;;;;11.52;2.42;;;2.70;73.80;;;;;;5015838;28;20022;-74
2022/02/01 10:41:56;;;;;;;9.07;1.48;;;2.70;73.10;;;;;;5001559;28;20125;-74
2022/02/01 10:44:22;;;;;;;7.25;1.70;;;2.70;71.70;;;;;;5000750;28;20026;-77
2022/02/01 10:46:53;;;;;;;5.57;1.92;;;2.80;71.70;;;;;;4998432;28;20026;-77
2022/02/01 10:49:29;;;;;;;13.95;2.72;;;2.80;72.60;;;;;;4997765;28;20033;-77
2022/02/01 10:52:10;;;;;;;6.72;1.67;;;2.80;71.60;;;;;;4998358;28;20121;-77
2022/02/01 10:54:38;;;;;;;7.53;1.52;;;2.70;71.60;;;;;;4997853;28;20037;-77
2022/02/01 10:57:06;;;;;;;6.78;1.48;;;2.60;72.10;;;;;;4997722;28;20026;-77
2022/02/01 10:59:34;;;;;;;9.70;1.50;;;2.60;73.10;;;;;;4997833;28;20026;-78
2022/02/01 11:02:03;;;;;;;5.68;1.15;;;2.70;72.10;;;;;;4997925;28;20028;-77
2022/02/01 11:04:30;;;;;;;5.63;1.50;;;2.70;72.10;;;;;;4997672;28;20116;-78
2022/02/01 11:06:56;;;;;;;7.40;1.42;;;2.70;71.40;;;;;;4981378;28;20483;-77
2022/02/01 11:09:24;;;;;;;5.03;1.20;;;2.60;71.80;;;;;;4996924;28;20034;-77
2022/02/01 11:11:55;;;;;;;5.28;1.35;;;2.50;72.70;;;;;;4997543;28;20125;-78
2022/02/01 11:14:22;;;;;;;8.80;1.17;;;2.40;73.10;;;;;;4997154;28;20097;-77
2022/02/01 11:16:48;;;;;;;5.93;1.60;;;2.50;72.80;;;;;;5013324;28;20067;-77
2022/02/01 11:19:17;;;;;;;3.92;1.30;;;2.50;73.20;;;;;;5016932;28;20492;-80
2022/02/01 11:21:49;;;;;;;7.28;1.05;;;2.60;73.10;;;;;;5015631;28;20033;-80
2022/02/01 11:24:21;;;;;;;5.22;1.20;;;2.70;72.80;;;;;;5016903;28;20501;-79
2022/02/01 11:26:51;;;;;;;11.45;2.30;;;2.60;72.20;;;;;;5016565;28;20151;-79
2022/02/01 11:31:54;;;;;;;9.50;1.27;;;2.40;72.10;;;;;;5034703;28;20663;-76
2022/02/01 11:34:33;;;;;;;11.43;1.70;;;2.40;72.20;;;;;;5016678;28;20068;-76
2022/02/01 11:37:03;;;;;;;4.57;1.80;;;2.40;72.20;;;;;;5016829;28;20116;-76
2022/02/01 11:39:30;;;;;;;5.03;1.42;;;2.30;73.50;;;;;;5016680;28;20032;-76
2022/02/01 11:41:57;;;;;;;9.95;1.95;;;2.30;73.10;;;;;;5016448;28;20080;-77
2022/02/01 11:44:33;;;;;;;10.07;1.77;;;2.20;73.10;;;;;;5016549;28;20021;-77
2022/02/01 11:47:18;;;;;;;10.48;1.90;;;2.30;73.80;;;;;;5016563;28;20544;-76
2022/02/01 11:49:57;;;;;;;7.50;1.83;;;2.30;73.20;;;;;;5016023;28;20033;-76
2022/02/01 11:52:26;;;;;;;12.55;2.08;;;2.40;73.60;;;;;;5033701;28;20493;-76
2022/02/01 11:55:05;;;;;;;7.97;1.98;;;2.50;72.60;;;;;;5015911;28;20096;-76
2022/02/01 11:57:32;;;;;;;10.35;1.88;;;2.60;71.20;;;;;;5015364;28;20041;-77
2022/02/01 12:00:09;;;;;;;10.10;1.48;;;2.60;70.70;;;;;;5015616;28;20516;-76
2022/02/01 12:02:40;;;;;;;8.40;2.03;;;2.70;70.00;;;;;;5015771;28;20022;-76
2022/02/01 12:05:13;;;;;;;7.72;1.30;;;2.70;69.00;;;;;;5015763;28;20022;-76
2022/02/01 12:07:47;;;;;;;10.13;1.40;;;2.70;69.20;;;;;;5015777;28;20250;-75
2022/02/01 12:10:17;;;;;;;6.97;1.42;;;2.60;68.80;;;;;;5015713;28;20037;-75
2022/02/01 12:12:44;;;;;;;6.40;1.67;;;2.60;69.80;;;;;;5015694;28;20018;-75
2022/02/01 12:15:10;;;;;;;7.88;1.75;;;2.60;69.70;;;;;;5015780;28;20108;-77
2022/02/01 12:17:43;;;;;;;6.00;1.45;;;2.60;69.50;;;;;;5015811;28;20029;-75
2022/02/01 12:20:15;;;;;;;6.55;1.33;;;2.80;68.80;;;;;;5015805;28;20075;-76
2022/02/01 12:23:12;;;;;;;5.32;1.50;;;2.60;69.10;;;;;;5015618;28;20025;-75
2022/02/01 12:25:37;;;;;;;11.50;1.88;;;2.60;69.10;;;;;;5015662;28;20017;-78
2022/02/01 12:28:14;;;;;;;4.32;1.25;;;2.60;69.70;;;;;;5015779;28;20040;-78
2022/02/01 12:30:40;;;;;;;9.60;1.88;;;2.60;69.80;;;;;;5015752;28;20029;-78
2022/02/01 12:33:18;;;;;;;5.68;1.38;;;2.60;69.10;;;;;;5015712;28;20426;-79
2022/02/01 12:35:45;;;;;;;6.60;2.28;;;2.50;69.60;;;;;;4999285;28;20033;-78
2022/02/01 12:38:18;;;;;;;13.00;1.73;;;2.50;69.00;;;;;;5015991;28;20021;-77
2022/02/01 12:40:45;;;;;;;10.82;1.73;;;2.50;69.50;;;;;;5015564;28;20113;-80
2022/02/01 12:43:19;;;;;;;7.40;1.70;;;2.50;70.10;;;;;;5015529;28;20028;-77
2022/02/01 12:48:20;;;;;;;12.35;2.33;;;2.50;70.60;;;;;;5033232;28;20043;-77
2022/02/01 12:51:01;;;;;;;7.32;1.50;;;2.50;69.80;;;;;;5015762;28;20030;-78
2022/02/01 12:53:37;;;;;;;4.22;1.20;;;2.50;70.20;;;;;;5029453;28;20041;-77
2022/02/01 12:56:13;;;;;;;6.60;1.58;;;2.40;70.80;;;;;;5017271;28;20068;-78
2022/02/01 12:58:39;;;;;;;9.05;2.45;;;2.50;70.90;;;;;;5015638;28;20052;-80
2022/02/01 13:01:06;;;;;;;7.90;1.95;;;2.50;70.30;;;;;;5015413;28;20053;-77
2022/02/01 13:03:44;;;;;;;6.32;1.85;;;2.50;70.70;;;;;;5015042;28;20041;-79
2022/02/01 13:06:12;;;;;;;13.25;2.53;;;2.50;71.10;;;;;;5015179;28;20022;-78
2022/02/01 13:12:55;;;;;;;7.50;1.92;;;2.40;71.10;;;;;;5015017;28;20095;-79
2022/02/01 13:17:15;;;;;;;4.68;1.33;;;2.50;71.70;;;;;;5032831;28;20048;-79
2022/02/01 13:22:35;;;;;;;9.52;2.00;;;2.30;72.00;;;;;;5032926;28;20036;-76
2022/02/01 13:25:07;;;;;;;8.23;1.90;;;2.40;71.90;;;;;;5014660;28;20028;-77
2022/02/01 13:27:34;;;;;;;7.32;1.77;;;2.40;72.10;;;;;;5014732;28;20475;-80
2022/02/01 13:30:06;;;;;;;1.95;0.90;;;2.60;71.70;;;;;;5015073;28;20045;-79
2022/02/01 13:32:38;;;;;;;8.07;2.05;;;2.70;71.30;;;;;;5014698;28;20053;-75
2022/02/01 13:35:07;;;;;;;6.45;1.88;;;2.70;71.10;;;;;;5015316;28;20056;-80
2022/02/01 13:37:35;;;;;;;3.53;1.30;;;2.60;71.70;;;;;;4998487;28;20479;-78
2022/02/01 13:40:03;;;;;;;4.60;1.10;;;2.60;71.40;;;;;;5032602;28;20022;-79
2022/02/01 13:42:36;;;;;;;4.80;0.90;;;2.50;71.80;;;;;;5014848;28;20128;-81
2022/02/01 13:45:06;;;;;;;6.68;1.20;;;2.50;71.80;;;;;;5017055;28;20563;-76
2022/02/01 13:47:33;;;;;;;3.95;0.93;;;2.50;71.70;;;;;;5018659;28;20084;-81
2022/02/01 13:49:59;;;;;;;3.55;1.00;;;2.50;71.60;;;;;;5036312;28;20061;-80
2022/02/01 13:52:25;;;;;;;1.67;1.00;;;2.40;72.60;;;;;;5036010;28;20071;-80
2022/02/01 13:54:51;;;;;;;2.72;0.80;;;2.30;73.70;;;;;;5036374;28;20041;-81
2022/02/01 13:57:19;;;;;;;4.85;1.00;;;2.30;73.40;;;;;;5040626;28;20025;-77
2022/02/01 13:59:45;;;;;;;3.05;0.85;;;2.20;73.70;;;;;;5050773;28;20006;-78
2022/02/01 14:02:19;;;;;;;5.60;1.00;;;2.20;74.00;;;;;;5039747;28;20018;-77
2022/02/01 14:05:06;;;;;;;5.15;1.27;;;2.20;74.20;;;;;;5036606;28;20033;-76
2022/02/01 14:08:19;;;;;;;3.95;1.15;;;2.20;73.90;;;;;;5036135;28;20031;-79
2022/02/01 14:10:42;;;;;;;3.50;0.80;;;2.10;75.00;;;;;;5035518;28;20041;-80
2022/02/01 14:13:53;;;;;;;3.17;0.80;;;2.00;75.40;;;;;;5018154;28;20034;-80
2022/02/01 14:26:53;;;;;;;3.28;0.80;;;2.00;75.70;;;;;;5035536;28;20044;-79
2022/02/01 14:32:09;;;;;;;2.95;0.90;;;2.00;75.80;;;;;;5035527;28;20152;-80
2022/02/01 14:34:37;;;;;;;2.72;0.80;;;2.00;76.00;;;;;;5035383;28;20032;-78
2022/02/01 14:37:13;;;;;;;1.42;0.70;;;2.10;76.50;;;;;;5035663;28;20049;-78
2022/02/01 14:45:05;;;;;;;4.05;0.98;;;1.90;77.60;;;;;;5035508;28;20032;-79
2022/02/01 14:47:30;;;;;;;2.33;1.00;;;1.90;78.20;;;;;;5035224;28;20053;-79
2022/02/01 14:49:56;;;;;;;3.72;1.23;;;1.90;78.00;;;;;;5035293;28;20069;-80
2022/02/01 14:52:22;;;;;;;3.53;0.80;;;1.90;78.80;;;;;;5035955;28;20470;-78
2022/02/01 14:54:53;;;;;;;4.63;0.80;;;1.90;79.40;;;;;;5017245;28;20394;-77
2022/02/01 15:13:40;;;;;;;4.00;1.50;;;2.20;78.20;;;;;;5038407;28;20028;-76
2022/02/01 15:16:05;;;;;;;2.33;0.90;;;2.30;78.00;;;;;;5034753;28;20050;-77
2022/02/01 15:18:32;;;;;;;3.28;1.10;;;2.30;78.10;;;;;;5034396;28;20026;-76
2022/02/01 15:20:57;;;;;;;3.35;1.25;;;2.30;77.80;;;;;;5016953;28;20026;-75
2022/02/01 15:23:24;;;;;;;2.17;1.10;;;2.30;77.80;;;;;;5034447;28;20362;-75
2022/02/01 15:25:51;;;;;;;3.95;1.33;;;2.30;78.30;;;;;;5034339;28;20466;-75